Time;durP1;ratioP1;P1;durP2;ratioP2;P2;SDS_P1;SDS_P2;PMS_P1;PMS_P2;Temp;Humidity;BMP_temperature;BMP_pressure;BME280_temperature;BME280_humidity;BME280_pressure;Samples;Min_cycle;Max_cycle;Signal;HPM_P1;HPM_P2
2021/10/10 00:02:13;;;;;;;24.50;14.03;;;15.70;50.30;;;;;;5092148;28;20432;-85
2021/10/10 00:04:40;;;;;;;20.30;12.27;;;15.50;49.40;;;;;;5077615;28;20513;-85
2021/10/10 00:07:07;;;;;;;26.60;14.20;;;15.80;50.30;;;;;;5084137;28;20460;-85
2021/10/10 00:09:34;;;;;;;21.50;13.73;;;15.90;49.90;;;;;;5093278;28;20455;-85
2021/10/10 00:12:02;;;;;;;36.20;14.37;;;15.80;50.30;;;;;;5094295;28;20461;-85
2021/10/10 00:14:29;;;;;;;22.80;13.20;;;15.70;44.10;;;;;;5092323;28;20489;-85
2021/10/10 00:16:56;;;;;;;21.40;13.90;;;15.20;49.30;;;;;;5090344;28;20502;-85
2021/10/10 00:19:23;;;;;;;23.73;13.33;;;14.70;47.40;;;;;;5078736;28;20446;-85
2021/10/10 00:21:50;;;;;;;24.27;14.10;;;15.00;48.80;;;;;;5078528;28;20483;-85
2021/10/10 00:24:17;;;;;;;25.07;13.10;;;14.70;49.00;;;;;;5087944;28;20471;-85
2021/10/10 00:26:44;;;;;;;23.50;12.87;;;15.00;50.60;;;;;;5084757;28;20532;-85
2021/10/10 00:29:12;;;;;;;28.67;14.50;;;15.40;52.00;;;;;;5079064;28;20442;-85
2021/10/10 00:31:39;;;;;;;22.60;15.00;;;15.00;48.00;;;;;;5079318;28;20455;-85
2021/10/10 00:34:06;;;;;;;25.20;13.77;;;14.90;49.00;;;;;;5077866;28;20452;-85
2021/10/10 00:36:33;;;;;;;22.63;13.00;;;14.80;49.60;;;;;;5075617;28;20891;-85
2021/10/10 00:39:00;;;;;;;28.53;12.20;;;14.90;51.10;;;;;;5076021;28;20440;-85
2021/10/10 00:41:27;;;;;;;22.03;13.27;;;15.60;50.30;;;;;;5078828;28;20447;-85
2021/10/10 00:43:54;;;;;;;34.43;12.23;;;15.50;48.10;;;;;;5088317;28;20434;-85
2021/10/10 00:46:22;;;;;;;22.73;12.70;;;15.10;49.60;;;;;;5088116;28;20448;-85
2021/10/10 00:48:49;;;;;;;25.63;13.03;;;15.10;49.60;;;;;;5088268;28;20475;-85
2021/10/10 00:51:16;;;;;;;22.57;11.63;;;15.10;50.80;;;;;;5076955;28;20948;-85
2021/10/10 00:53:43;;;;;;;17.20;11.00;;;15.00;49.80;;;;;;5074973;28;20477;-85
2021/10/10 00:56:12;;;;;;;22.60;11.67;;;15.30;51.90;;;;;;5074443;28;20866;-85
2021/10/10 00:58:40;;;;;;;27.27;14.80;;;15.50;50.20;;;;;;5074098;28;20888;-85
2021/10/10 01:01:07;;;;;;;19.73;12.50;;;15.60;49.00;;;;;;5076075;28;20460;-85
2021/10/10 01:03:36;;;;;;;19.90;12.30;;;15.70;50.30;;;;;;5075157;28;20448;-85
2021/10/10 01:06:03;;;;;;;22.17;12.20;;;15.70;50.10;;;;;;5075158;28;20903;-85
2021/10/10 01:08:29;;;;;;;18.10;11.20;;;15.80;49.10;;;;;;5074274;28;20450;-85
2021/10/10 01:10:56;;;;;;;20.13;12.40;;;15.90;50.00;;;;;;5074429;28;20442;-85
2021/10/10 01:13:24;;;;;;;18.20;11.90;;;16.10;49.50;;;;;;5074458;28;20470;-85
2021/10/10 01:15:52;;;;;;;16.17;11.87;;;15.80;47.80;;;;;;5074377;28;20531;-85
2021/10/10 01:18:23;;;;;;;17.47;11.33;;;15.70;46.20;;;;;;5073814;28;20514;-85
2021/10/10 01:20:53;;;;;;;20.17;11.90;;;15.60;49.60;;;;;;5073729;28;20446;-85
2021/10/10 01:23:21;;;;;;;17.07;12.47;;;15.60;49.30;;;;;;5074687;28;20435;-85
2021/10/10 01:25:48;;;;;;;16.53;10.73;;;15.80;48.60;;;;;;5074935;28;20518;-85
2021/10/10 01:28:15;;;;;;;18.80;12.90;;;15.30;47.60;;;;;;5074792;28;20547;-85
2021/10/10 01:30:42;;;;;;;17.43;11.63;;;15.20;49.80;;;;;;5074411;28;20938;-85
2021/10/10 01:33:10;;;;;;;18.00;12.00;;;15.20;48.30;;;;;;5075060;28;20463;-85
2021/10/10 01:35:38;;;;;;;17.70;11.67;;;15.10;46.80;;;;;;5074432;28;20568;-85
2021/10/10 01:38:09;;;;;;;22.27;13.43;;;15.20;49.30;;;;;;5073575;28;20559;-84
2021/10/10 01:40:37;;;;;;;18.13;11.27;;;15.00;49.10;;;;;;5074817;28;20427;-85
2021/10/10 01:43:05;;;;;;;17.73;10.87;;;14.70;49.10;;;;;;5074061;28;20941;-85
2021/10/10 01:45:32;;;;;;;17.20;10.77;;;14.60;49.90;;;;;;5073270;28;20474;-84
2021/10/10 01:47:59;;;;;;;17.40;10.90;;;14.80;50.30;;;;;;5075696;28;20535;-85
2021/10/10 01:50:26;;;;;;;18.80;12.17;;;15.00;49.60;;;;;;5076827;28;20451;-85
2021/10/10 01:52:53;;;;;;;17.90;11.10;;;15.00;48.20;;;;;;5075720;28;20447;-85
2021/10/10 01:55:21;;;;;;;26.50;12.30;;;15.10;49.20;;;;;;5076129;28;20756;-85
2021/10/10 01:57:48;;;;;;;17.50;12.10;;;14.90;47.00;;;;;;5074929;28;20485;-85
2021/10/10 02:00:15;;;;;;;22.23;10.67;;;14.80;48.80;;;;;;5075838;28;20565;-85
2021/10/10 02:02:42;;;;;;;17.67;12.40;;;14.90;50.20;;;;;;5077110;28;20470;-85
2021/10/10 02:05:10;;;;;;;19.30;11.73;;;14.70;50.30;;;;;;5075276;28;20559;-85
2021/10/10 02:07:38;;;;;;;17.80;11.23;;;14.70;50.30;;;;;;5075445;28;20499;-86
2021/10/10 02:10:06;;;;;;;22.63;12.20;;;14.30;46.80;;;;;;5075386;28;20511;-85
2021/10/10 02:12:35;;;;;;;20.30;13.00;;;14.40;48.30;;;;;;5075580;28;20515;-85
2021/10/10 02:15:02;;;;;;;14.30;10.30;;;14.40;49.90;;;;;;5074314;28;20546;-85
2021/10/10 02:17:29;;;;;;;15.47;9.77;;;14.60;49.20;;;;;;5074442;28;20518;-85
2021/10/10 02:19:56;;;;;;;13.90;10.60;;;14.90;50.70;;;;;;5076164;28;20480;-85
2021/10/10 02:22:23;;;;;;;17.53;11.10;;;15.10;50.50;;;;;;5075553;28;20909;-85
2021/10/10 02:24:50;;;;;;;14.13;9.97;;;15.00;46.60;;;;;;5075326;28;20547;-85
2021/10/10 02:27:17;;;;;;;15.43;10.60;;;14.60;48.10;;;;;;5074679;28;20495;-85
2021/10/10 02:29:45;;;;;;;17.27;10.80;;;14.90;50.20;;;;;;5074107;28;20808;-85
2021/10/10 02:32:12;;;;;;;18.73;10.77;;;14.90;50.00;;;;;;5076420;28;20479;-85
2021/10/10 02:34:39;;;;;;;12.67;9.03;;;14.90;49.30;;;;;;5074428;28;20933;-85
2021/10/10 02:37:06;;;;;;;20.63;9.80;;;15.00;50.50;;;;;;5074638;28;20495;-85
2021/10/10 02:39:33;;;;;;;15.90;10.37;;;15.20;50.80;;;;;;5075302;28;20883;-84
2021/10/10 02:41:59;;;;;;;13.50;9.90;;;15.40;50.10;;;;;;5076269;28;20458;-85
2021/10/10 02:44:27;;;;;;;21.97;11.03;;;15.20;48.90;;;;;;5076096;28;20971;-85
2021/10/10 02:46:56;;;;;;;15.13;10.30;;;15.10;49.20;;;;;;5075322;28;20459;-85
2021/10/10 02:49:23;;;;;;;17.50;11.57;;;14.80;47.90;;;;;;5075217;28;20455;-85
2021/10/10 02:51:49;;;;;;;20.97;11.07;;;14.70;49.20;;;;;;5074990;28;20471;-85
2021/10/10 02:54:16;;;;;;;14.20;10.40;;;14.40;46.90;;;;;;5074314;28;20466;-85
2021/10/10 02:56:43;;;;;;;17.90;11.40;;;14.40;49.60;;;;;;5076769;28;20483;-85
2021/10/10 02:59:10;;;;;;;16.20;10.33;;;14.70;49.60;;;;;;5079931;28;20534;-84
2021/10/10 03:01:37;;;;;;;17.37;11.70;;;14.60;49.70;;;;;;5078966;28;20950;-85
2021/10/10 03:04:05;;;;;;;17.43;10.30;;;14.40;48.60;;;;;;5079857;28;20474;-85
2021/10/10 03:06:32;;;;;;;19.30;10.67;;;14.50;49.30;;;;;;5077733;28;20486;-85
2021/10/10 03:08:59;;;;;;;14.97;10.10;;;14.60;50.80;;;;;;5077844;28;20641;-85
2021/10/10 03:11:26;;;;;;;15.67;10.37;;;14.60;48.40;;;;;;5077576;28;20439;-85
2021/10/10 03:13:53;;;;;;;10.50;8.93;;;14.50;49.20;;;;;;5079774;28;20513;-85
2021/10/10 03:16:20;;;;;;;16.30;9.90;;;14.30;49.80;;;;;;5078125;28;20457;-85
2021/10/10 03:18:47;;;;;;;17.23;9.67;;;14.50;49.50;;;;;;5077560;28;20427;-85
2021/10/10 03:21:15;;;;;;;11.50;8.90;;;14.40;48.30;;;;;;5077294;28;20502;-85
2021/10/10 03:23:42;;;;;;;11.70;8.67;;;14.20;50.10;;;;;;5077271;28;20493;-85
2021/10/10 03:26:09;;;;;;;13.30;9.30;;;14.60;50.90;;;;;;5076768;28;20573;-85
2021/10/10 03:28:36;;;;;;;12.87;9.60;;;14.20;46.10;;;;;;5076834;28;20447;-85
2021/10/10 03:31:03;;;;;;;12.73;9.90;;;14.10;50.80;;;;;;5076226;28;20447;-85
2021/10/10 03:33:30;;;;;;;14.57;9.30;;;14.40;49.80;;;;;;5077189;28;20534;-84
2021/10/10 03:35:57;;;;;;;14.83;8.03;;;14.60;50.80;;;;;;5076671;28;20471;-84
2021/10/10 03:38:25;;;;;;;11.60;8.63;;;14.40;49.20;;;;;;5075913;28;20556;-84
2021/10/10 03:40:52;;;;;;;12.20;8.47;;;14.40;48.90;;;;;;5076557;28;20857;-85
2021/10/10 03:43:19;;;;;;;14.53;8.53;;;14.40;49.80;;;;;;5076767;28;20483;-84
2021/10/10 03:45:46;;;;;;;10.13;7.77;;;14.50;49.30;;;;;;5077117;28;20562;-84
2021/10/10 03:48:13;;;;;;;11.17;8.30;;;14.30;50.30;;;;;;5077260;28;20462;-84
2021/10/10 03:50:40;;;;;;;11.90;8.50;;;14.40;49.80;;;;;;5076505;28;20483;-84
2021/10/10 03:53:07;;;;;;;11.37;8.57;;;14.60;49.90;;;;;;5075838;28;21032;-85
2021/10/10 03:55:36;;;;;;;14.40;10.10;;;14.40;47.50;;;;;;5076288;28;20471;-85
2021/10/10 03:58:03;;;;;;;15.63;9.33;;;13.90;46.30;;;;;;5076041;28;20471;-85
2021/10/10 04:00:32;;;;;;;15.70;10.23;;;13.30;47.70;;;;;;5075995;28;20801;-84
2021/10/10 04:03:02;;;;;;;11.77;8.57;;;13.00;47.90;;;;;;5076140;28;20530;-84
2021/10/10 04:05:39;;;;;;;15.87;9.10;;;13.20;50.80;;;;;;5075390;28;20474;-84
2021/10/10 04:08:06;;;;;;;15.83;9.73;;;13.50;52.40;;;;;;5075252;28;20901;-85
2021/10/10 04:10:34;;;;;;;14.37;9.50;;;13.60;50.60;;;;;;5075801;28;20816;-85
2021/10/10 04:13:02;;;;;;;17.57;11.13;;;14.00;52.50;;;;;;5075768;28;20451;-85
2021/10/10 04:15:29;;;;;;;13.40;8.80;;;14.10;47.60;;;;;;5075801;28;20446;-85
2021/10/10 04:17:56;;;;;;;15.97;10.23;;;14.20;50.90;;;;;;5075184;28;20554;-84
2021/10/10 04:20:23;;;;;;;11.77;7.20;;;14.30;49.70;;;;;;5075904;28;20530;-84
2021/10/10 04:22:50;;;;;;;25.13;11.20;;;14.50;50.30;;;;;;5075678;28;20458;-84
2021/10/10 04:25:17;;;;;;;18.17;11.20;;;14.60;51.30;;;;;;5075309;28;20439;-84
2021/10/10 04:27:45;;;;;;;18.03;11.97;;;14.40;45.20;;;;;;5075090;28;20546;-84
2021/10/10 04:30:14;;;;;;;31.37;13.50;;;13.40;47.90;;;;;;5075202;28;20504;-84
2021/10/10 04:32:41;;;;;;;20.03;11.70;;;13.00;47.00;;;;;;5075633;28;20478;-84
2021/10/10 04:35:09;;;;;;;19.03;11.60;;;12.80;48.60;;;;;;5075343;28;20526;-84
2021/10/10 04:37:36;;;;;;;12.60;9.37;;;12.80;51.00;;;;;;5075654;28;20498;-84
2021/10/10 04:40:05;;;;;;;18.83;11.57;;;13.00;50.20;;;;;;5075138;28;20570;-84
2021/10/10 04:42:34;;;;;;;16.63;10.93;;;13.40;51.80;;;;;;5085569;28;20477;-84
2021/10/10 04:45:02;;;;;;;18.50;11.50;;;13.60;51.90;;;;;;5094326;28;20495;-84
2021/10/10 04:47:29;;;;;;;21.47;11.17;;;13.80;50.60;;;;;;5093118;28;20482;-84
2021/10/10 04:49:56;;;;;;;13.60;9.33;;;13.90;50.80;;;;;;5085985;28;20458;-84
2021/10/10 04:52:23;;;;;;;14.60;9.93;;;14.30;51.80;;;;;;5088456;28;20443;-84
2021/10/10 04:54:50;;;;;;;17.43;11.00;;;14.60;50.90;;;;;;5088677;28;20456;-84
2021/10/10 04:57:17;;;;;;;15.27;10.67;;;14.50;49.10;;;;;;5085538;28;20972;-84
2021/10/10 04:59:49;;;;;;;19.33;10.80;;;14.70;49.30;;;;;;5075350;28;20448;-84
2021/10/10 05:02:19;;;;;;;15.37;10.37;;;14.30;48.50;;;;;;5075685;28;20804;-84
2021/10/10 05:04:46;;;;;;;14.47;10.27;;;14.20;48.50;;;;;;5075082;28;20428;-84
2021/10/10 05:07:13;;;;;;;12.23;9.83;;;14.20;49.60;;;;;;5074510;28;20479;-84
2021/10/10 05:09:40;;;;;;;13.53;9.13;;;14.40;50.60;;;;;;5075466;28;20534;-84
2021/10/10 05:12:07;;;;;;;14.23;9.80;;;14.50;50.20;;;;;;5075863;28;20454;-84
2021/10/10 05:14:34;;;;;;;14.00;10.37;;;14.70;50.00;;;;;;5081351;28;20436;-84
2021/10/10 05:17:01;;;;;;;14.43;9.67;;;14.70;46.60;;;;;;5085992;28;20482;-84
2021/10/10 05:19:29;;;;;;;13.50;10.60;;;14.50;47.60;;;;;;5085919;28;20967;-84
2021/10/10 05:21:56;;;;;;;14.93;10.43;;;14.60;50.00;;;;;;5086360;28;20493;-84
2021/10/10 05:24:23;;;;;;;14.73;10.43;;;14.60;48.70;;;;;;5085903;28;20471;-84
2021/10/10 05:26:50;;;;;;;15.70;11.17;;;14.40;49.00;;;;;;5086477;28;20527;-84
2021/10/10 05:29:17;;;;;;;13.83;9.87;;;14.00;46.40;;;;;;5087307;28;20447;-84
2021/10/10 05:31:45;;;;;;;19.63;9.90;;;13.90;48.70;;;;;;5086320;28;20834;-85
2021/10/10 05:34:12;;;;;;;15.90;9.90;;;14.00;49.80;;;;;;5087873;28;20448;-86
2021/10/10 05:36:40;;;;;;;15.20;10.30;;;14.20;51.30;;;;;;5084855;28;20600;-86
2021/10/10 05:39:07;;;;;;;15.70;10.00;;;14.60;50.30;;;;;;5083829;28;20471;-86
2021/10/10 05:41:34;;;;;;;13.13;9.37;;;14.60;50.70;;;;;;5083408;28;20451;-84
2021/10/10 05:44:01;;;;;;;12.90;8.80;;;14.80;50.20;;;;;;5086127;28;20497;-84
2021/10/10 05:46:28;;;;;;;13.97;9.47;;;15.00;50.30;;;;;;5086191;28;20486;-84
2021/10/10 05:48:55;;;;;;;12.03;8.40;;;15.10;50.20;;;;;;5083384;28;20447;-84
2021/10/10 05:51:22;;;;;;;13.70;9.40;;;15.10;50.50;;;;;;5085188;28;20451;-84
2021/10/10 05:53:50;;;;;;;15.20;9.80;;;15.10;49.90;;;;;;5084685;28;20921;-83
2021/10/10 05:56:18;;;;;;;12.13;8.80;;;14.30;44.30;;;;;;5082566;28;20444;-83
2021/10/10 05:58:49;;;;;;;16.30;10.00;;;13.90;46.90;;;;;;5082307;28;20801;-84
2021/10/10 06:01:16;;;;;;;15.60;10.30;;;14.10;50.00;;;;;;5075246;28;20456;-84
2021/10/10 06:03:43;;;;;;;18.73;10.63;;;13.90;49.20;;;;;;5075250;28;20436;-84
2021/10/10 06:06:10;;;;;;;12.83;9.90;;;13.70;47.70;;;;;;5075512;28;20535;-84
2021/10/10 06:08:37;;;;;;;11.67;9.00;;;13.40;44.80;;;;;;5079611;28;20438;-83
2021/10/10 06:11:05;;;;;;;18.40;9.03;;;13.40;50.10;;;;;;5086203;28;20547;-83
2021/10/10 06:13:33;;;;;;;12.47;8.53;;;13.60;49.20;;;;;;5086765;28;20445;-83
2021/10/10 06:16:00;;;;;;;12.20;8.53;;;13.60;50.20;;;;;;5085290;28;20523;-83
2021/10/10 06:18:28;;;;;;;16.47;8.77;;;13.70;50.00;;;;;;5076451;28;20521;-84
2021/10/10 06:20:55;;;;;;;16.03;8.70;;;13.80;50.50;;;;;;5078523;28;20451;-84
2021/10/10 06:23:21;;;;;;;11.70;7.70;;;14.00;51.50;;;;;;5076913;28;20494;-85
2021/10/10 06:25:49;;;;;;;21.43;7.70;;;14.20;50.30;;;;;;5076572;28;20439;-84
2021/10/10 06:28:17;;;;;;;11.00;7.40;;;14.30;50.10;;;;;;5076647;28;20459;-84
2021/10/10 06:30:44;;;;;;;15.07;8.70;;;14.10;47.10;;;;;;5075441;28;20520;-84
2021/10/10 06:33:11;;;;;;;19.40;8.23;;;13.80;46.00;;;;;;5075606;28;20952;-85
2021/10/10 06:35:38;;;;;;;10.03;7.77;;;13.70;44.80;;;;;;5075967;28;20446;-85
2021/10/10 06:38:05;;;;;;;19.30;7.87;;;13.20;48.50;;;;;;5077261;28;20493;-85
2021/10/10 06:40:32;;;;;;;12.50;9.07;;;13.50;46.40;;;;;;5079026;28;20450;-84
2021/10/10 06:43:00;;;;;;;11.57;7.83;;;13.50;50.00;;;;;;5077706;28;20447;-85
2021/10/10 06:45:28;;;;;;;9.97;7.23;;;13.70;46.90;;;;;;5076469;28;20509;-84
2021/10/10 06:47:55;;;;;;;10.87;8.23;;;13.70;46.00;;;;;;5075595;28;20483;-85
2021/10/10 06:50:22;;;;;;;10.00;8.23;;;13.60;45.40;;;;;;5077751;28;20602;-85
2021/10/10 06:52:49;;;;;;;11.37;8.40;;;13.60;47.00;;;;;;5081620;28;20473;-84
2021/10/10 06:55:16;;;;;;;10.47;7.87;;;13.40;43.90;;;;;;5076411;28;20486;-85
2021/10/10 06:57:44;;;;;;;13.60;8.23;;;13.40;42.60;;;;;;5077011;28;20470;-85
2021/10/10 07:00:13;;;;;;;21.83;7.90;;;14.30;43.70;;;;;;5076850;28;20490;-85
2021/10/10 07:02:42;;;;;;;11.00;8.07;;;14.40;38.10;;;;;;5076985;28;20482;-85
2021/10/10 07:05:09;;;;;;;17.10;11.20;;;14.10;41.00;;;;;;5075222;28;20447;-84
2021/10/10 07:07:36;;;;;;;13.30;9.07;;;13.00;40.90;;;;;;5075522;28;20526;-84
2021/10/10 07:10:04;;;;;;;13.53;9.40;;;12.40;42.80;;;;;;5075987;28;20518;-85
2021/10/10 07:12:31;;;;;;;14.90;10.33;;;11.90;42.60;;;;;;5076665;28;20534;-86
2021/10/10 07:14:58;;;;;;;10.93;8.93;;;11.60;46.50;;;;;;5075941;28;20453;-85
2021/10/10 07:17:27;;;;;;;15.13;10.73;;;11.40;44.80;;;;;;5076417;28;20528;-85
2021/10/10 07:19:59;;;;;;;21.13;11.13;;;11.00;47.00;;;;;;5075600;28;20485;-85
2021/10/10 07:22:30;;;;;;;18.53;11.60;;;10.60;50.10;;;;;;5076289;28;20539;-85
2021/10/10 07:25:04;;;;;;;16.30;11.10;;;10.20;48.30;;;;;;5076210;28;20473;-85
2021/10/10 07:27:33;;;;;;;15.87;11.93;;;10.30;49.80;;;;;;5074726;28;20487;-85
2021/10/10 07:30:00;;;;;;;20.60;12.50;;;10.60;49.80;;;;;;5055471;28;20782;-85
2021/10/10 07:32:27;;;;;;;16.03;12.43;;;10.60;49.50;;;;;;5055198;28;20810;-85
2021/10/10 07:34:55;;;;;;;19.17;12.30;;;10.50;50.00;;;;;;5054069;28;20477;-85
2021/10/10 07:37:22;;;;;;;20.03;13.00;;;10.50;51.50;;;;;;5055338;28;20491;-85
2021/10/10 07:39:49;;;;;;;22.77;11.77;;;10.50;50.80;;;;;;5088197;28;20516;-85
2021/10/10 07:42:16;;;;;;;14.80;10.50;;;10.60;51.60;;;;;;5087446;28;20463;-85
2021/10/10 07:44:46;;;;;;;16.53;10.27;;;10.70;51.50;;;;;;5092438;28;20445;-85
2021/10/10 07:47:18;;;;;;;12.70;9.60;;;11.00;51.60;;;;;;5092349;28;20536;-85
2021/10/10 07:49:48;;;;;;;19.70;9.70;;;11.80;51.20;;;;;;5092711;28;20461;-85
2021/10/10 07:52:19;;;;;;;28.30;12.37;;;12.20;47.20;;;;;;5062121;28;20989;-85
2021/10/10 07:54:46;;;;;;;17.70;12.40;;;12.50;48.80;;;;;;5059365;28;20456;-85
2021/10/10 07:57:13;;;;;;;16.17;12.40;;;12.50;48.50;;;;;;5062832;28;20479;-85
2021/10/10 07:59:40;;;;;;;17.13;12.47;;;12.70;47.30;;;;;;5090224;28;20447;-85
2021/10/10 08:02:07;;;;;;;16.17;11.53;;;13.30;47.20;;;;;;5095461;28;20487;-85
2021/10/10 08:04:34;;;;;;;18.40;11.40;;;13.40;44.90;;;;;;5077377;28;20448;-85
2021/10/10 08:07:01;;;;;;;18.93;12.10;;;13.50;43.90;;;;;;5069535;28;20467;-85
2021/10/10 08:09:29;;;;;;;26.83;12.17;;;13.70;44.90;;;;;;5059655;28;20539;-85
2021/10/10 08:11:56;;;;;;;15.47;11.03;;;14.30;48.00;;;;;;5059468;28;20455;-86
2021/10/10 08:14:23;;;;;;;20.27;12.90;;;14.80;43.40;;;;;;5058824;28;20442;-85
2021/10/10 08:16:50;;;;;;;22.10;12.20;;;15.00;43.40;;;;;;5078555;28;20515;-86
2021/10/10 08:19:17;;;;;;;21.23;11.67;;;15.20;43.40;;;;;;5079463;28;20434;-85
2021/10/10 08:21:44;;;;;;;11.87;9.27;;;15.50;41.90;;;;;;5079982;28;20451;-87
2021/10/10 08:24:12;;;;;;;27.03;12.70;;;16.00;50.10;;;;;;5079660;28;20447;-85
2021/10/10 08:26:40;;;;;;;10.40;7.90;;;16.90;42.80;;;;;;5078027;28;20479;-86
2021/10/10 08:29:07;;;;;;;17.47;10.97;;;16.70;41.50;;;;;;5079574;28;20497;-86
2021/10/10 08:31:34;;;;;;;22.37;14.10;;;16.50;39.70;;;;;;5079010;28;20994;-85
2021/10/10 08:34:01;;;;;;;29.53;14.00;;;15.70;39.30;;;;;;5078435;28;20478;-86
2021/10/10 08:36:27;;;;;;;18.43;12.90;;;15.90;39.40;;;;;;5078185;28;20489;-85
2021/10/10 08:38:54;;;;;;;16.50;11.83;;;16.20;41.90;;;;;;5079382;28;20487;-86
2021/10/10 08:41:29;;;;;;;23.47;14.20;;;16.20;41.10;;;;;;5081871;28;20498;-86
2021/10/10 08:43:58;;;;;;;22.07;13.30;;;15.90;40.20;;;;;;5075573;28;20438;-85
2021/10/10 08:46:26;;;;;;;17.93;9.13;;;15.40;40.70;;;;;;5075266;28;20451;-85
2021/10/10 08:48:53;;;;;;;21.93;13.60;;;15.80;44.30;;;;;;5075629;28;20443;-85
2021/10/10 08:51:21;;;;;;;24.33;12.50;;;16.00;40.30;;;;;;5067812;28;20425;-85
2021/10/10 08:53:48;;;;;;;22.53;13.50;;;16.00;40.90;;;;;;5068048;28;20481;-85
2021/10/10 08:56:15;;;;;;;22.97;13.20;;;15.20;39.40;;;;;;5094212;28;20509;-86
2021/10/10 08:58:45;;;;;;;20.57;11.83;;;15.30;41.90;;;;;;5094393;28;20624;-86
2021/10/10 09:01:18;;;;;;;34.10;14.70;;;15.30;41.90;;;;;;5094691;28;20451;-85
2021/10/10 09:03:49;;;;;;;28.50;13.17;;;15.10;40.10;;;;;;5095625;28;20466;-85
2021/10/10 09:06:16;;;;;;;23.50;13.87;;;15.80;43.20;;;;;;5094736;28;20464;-84
2021/10/10 09:08:43;;;;;;;31.03;15.20;;;15.70;39.50;;;;;;5088280;28;20573;-85
2021/10/10 09:11:11;;;;;;;19.80;12.50;;;15.80;39.60;;;;;;5078693;28;20900;-85
2021/10/10 09:13:39;;;;;;;22.67;12.40;;;16.10;41.00;;;;;;5076507;28;20465;-84
2021/10/10 09:16:07;;;;;;;24.50;14.50;;;16.40;41.40;;;;;;5076137;28;20546;-85
2021/10/10 09:18:39;;;;;;;31.73;15.57;;;16.70;38.90;;;;;;5081792;28;20459;-85
2021/10/10 09:21:17;;;;;;;31.87;15.23;;;16.50;36.90;;;;;;5068048;28;20468;-85
2021/10/10 09:23:48;;;;;;;27.40;14.23;;;15.60;37.30;;;;;;5065553;28;20444;-85
2021/10/10 09:26:17;;;;;;;26.40;12.90;;;15.20;38.80;;;;;;5060065;28;20412;-84
2021/10/10 09:28:45;;;;;;;25.47;13.93;;;15.20;40.20;;;;;;5061121;28;20490;-84
2021/10/10 09:31:13;;;;;;;30.53;16.80;;;15.00;39.50;;;;;;5056419;28;20811;-85
2021/10/10 09:33:42;;;;;;;22.83;13.50;;;14.50;39.50;;;;;;5057229;28;20531;-85
2021/10/10 09:36:16;;;;;;;168.93;76.20;;;14.30;41.40;;;;;;5056810;28;20539;-85
2021/10/10 09:38:46;;;;;;;57.60;24.60;;;14.70;39.70;;;;;;5059079;28;20447;-84
2021/10/10 09:41:24;;;;;;;23.20;14.50;;;14.30;40.70;;;;;;5068578;28;20455;-85
2021/10/10 09:44:03;;;;;;;25.43;13.77;;;14.40;39.40;;;;;;5062401;28;20894;-85
2021/10/10 09:46:31;;;;;;;31.70;16.80;;;14.30;40.90;;;;;;5081307;28;20457;-86
2021/10/10 09:48:59;;;;;;;31.10;13.67;;;14.60;41.60;;;;;;5080301;28;20921;-85
2021/10/10 09:51:34;;;;;;;24.93;14.63;;;15.00;44.20;;;;;;5078493;28;20452;-85
2021/10/10 09:54:02;;;;;;;28.10;13.87;;;15.20;38.80;;;;;;5079006;28;20438;-85
2021/10/10 09:56:29;;;;;;;25.77;14.50;;;15.00;38.60;;;;;;5078343;28;21013;-85
2021/10/10 09:58:56;;;;;;;22.40;12.73;;;15.00;41.80;;;;;;5082392;28;20438;-85
2021/10/10 10:01:24;;;;;;;22.20;12.90;;;15.50;41.80;;;;;;5083977;28;20436;-85
2021/10/10 10:04:04;;;;;;;38.87;14.77;;;15.60;40.50;;;;;;5078814;28;20511;-85
2021/10/10 10:06:33;;;;;;;33.13;15.10;;;15.40;38.10;;;;;;5079433;28;20471;-85
2021/10/10 10:09:04;;;;;;;24.43;14.40;;;15.20;39.60;;;;;;5077169;28;20478;-85
2021/10/10 10:11:32;;;;;;;26.30;13.87;;;14.70;41.30;;;;;;5077292;28;20496;-85
2021/10/10 10:14:02;;;;;;;21.83;14.23;;;14.80;40.80;;;;;;5077314;28;20807;-85
2021/10/10 10:16:30;;;;;;;39.73;14.07;;;15.00;39.10;;;;;;5077147;28;20478;-85
2021/10/10 10:18:59;;;;;;;27.43;13.77;;;14.70;38.80;;;;;;5077717;28;20467;-85
2021/10/10 10:21:30;;;;;;;20.63;13.00;;;14.50;39.50;;;;;;5077212;28;20459;-85
2021/10/10 10:24:00;;;;;;;27.20;14.17;;;14.80;39.80;;;;;;5077725;28;20423;-85
2021/10/10 10:26:31;;;;;;;24.67;13.33;;;14.60;38.40;;;;;;5076367;28;20455;-85
2021/10/10 10:28:59;;;;;;;23.03;12.83;;;14.60;40.30;;;;;;5077258;28;20514;-85
2021/10/10 10:31:27;;;;;;;23.47;13.40;;;15.40;40.30;;;;;;5056867;28;20467;-84
2021/10/10 10:34:17;;;;;;;22.10;13.30;;;16.20;36.40;;;;;;5056691;28;20436;-84
2021/10/10 10:36:53;;;;;;;23.33;11.30;;;15.30;37.50;;;;;;5059870;28;21006;-85
2021/10/10 10:39:43;;;;;;;35.90;14.27;;;15.50;42.50;;;;;;5076151;28;20447;-86
2021/10/10 10:42:11;;;;;;;25.30;13.80;;;15.90;36.80;;;;;;5076026;28;20954;-85
2021/10/10 10:44:43;;;;;;;22.70;13.30;;;15.00;37.80;;;;;;5074876;28;20571;-86
2021/10/10 10:47:14;;;;;;;22.53;12.20;;;14.90;38.80;;;;;;5074278;28;20540;-86
2021/10/10 10:50:01;;;;;;;29.60;13.93;;;15.30;39.60;;;;;;5075341;28;20420;-86
2021/10/10 10:52:32;;;;;;;27.63;13.90;;;15.80;38.90;;;;;;5079388;28;20439;-87
2021/10/10 10:55:00;;;;;;;24.97;13.77;;;15.90;38.00;;;;;;5077090;28;20447;-86
2021/10/10 10:57:31;;;;;;;25.83;13.63;;;15.80;35.70;;;;;;5066695;28;20488;-86
2021/10/10 11:00:04;;;;;;;28.13;12.53;;;15.50;36.30;;;;;;5068734;28;20502;-86
2021/10/10 11:03:04;;;;;;;28.03;13.20;;;15.10;37.50;;;;;;5075459;28;20535;-86
2021/10/10 11:05:47;;;;;;;34.83;13.30;;;15.50;36.90;;;;;;5060251;28;20515;-86
2021/10/10 11:08:35;;;;;;;25.70;12.70;;;15.90;35.80;;;;;;5069984;28;20941;-86
2021/10/10 11:11:17;;;;;;;24.77;12.60;;;16.20;35.60;;;;;;5058124;28;20488;-86
2021/10/10 11:13:46;;;;;;;28.87;13.60;;;16.20;35.20;;;;;;5061464;28;20477;-86
2021/10/10 11:16:14;;;;;;;22.90;11.03;;;16.10;37.20;;;;;;5059704;28;20540;-86
2021/10/10 11:18:47;;;;;;;32.60;13.93;;;16.10;37.20;;;;;;5063540;28;20424;-85
2021/10/10 11:21:15;;;;;;;22.87;13.50;;;16.20;36.00;;;;;;5081245;28;20479;-86
2021/10/10 11:23:47;;;;;;;20.30;12.37;;;16.30;35.10;;;;;;5081990;28;20486;-86
2021/10/10 11:26:14;;;;;;;20.83;13.40;;;16.20;36.30;;;;;;5081690;28;20518;-86
2021/10/10 11:28:45;;;;;;;22.90;14.40;;;15.80;36.30;;;;;;5081052;28;20521;-86
2021/10/10 11:31:15;;;;;;;21.97;13.90;;;16.20;37.20;;;;;;5077882;28;20482;-86
2021/10/10 11:33:43;;;;;;;22.70;14.50;;;16.40;36.20;;;;;;5061886;28;20452;-86
2021/10/10 11:36:11;;;;;;;25.33;13.97;;;16.10;36.50;;;;;;5079322;28;20464;-86
2021/10/10 11:38:50;;;;;;;24.70;14.37;;;15.90;36.60;;;;;;5088358;28;20482;-86
2021/10/10 11:41:17;;;;;;;32.60;13.33;;;15.80;36.70;;;;;;5090438;28;20466;-86
2021/10/10 11:44:03;;;;;;;28.13;15.17;;;15.50;36.90;;;;;;5092804;28;20448;-86
2021/10/10 11:46:42;;;;;;;23.90;13.43;;;16.10;37.00;;;;;;5084871;28;20447;-86
2021/10/10 11:49:28;;;;;;;21.67;12.60;;;16.40;36.80;;;;;;5082288;28;20467;-86
2021/10/10 11:51:55;;;;;;;19.67;12.90;;;16.50;36.00;;;;;;5080960;28;20439;-86
2021/10/10 11:54:28;;;;;;;29.50;13.80;;;16.80;36.00;;;;;;5086998;28;20444;-86
2021/10/10 11:56:57;;;;;;;22.10;13.30;;;16.80;36.00;;;;;;5079500;28;20582;-87
2021/10/10 11:59:24;;;;;;;23.63;13.90;;;16.70;36.40;;;;;;5079019;28;20438;-86
2021/10/10 12:01:53;;;;;;;22.90;14.07;;;16.90;36.30;;;;;;5080361;28;20443;-86
2021/10/10 12:04:19;;;;;;;29.03;14.83;;;16.60;36.30;;;;;;5078738;28;20431;-86
2021/10/10 12:06:47;;;;;;;27.03;14.70;;;16.00;37.40;;;;;;5078383;28;20549;-86
2021/10/10 12:09:14;;;;;;;23.70;13.60;;;16.30;37.70;;;;;;5078494;28;20925;-87
2021/10/10 12:12:02;;;;;;;19.57;12.83;;;16.50;36.50;;;;;;5078058;28;20547;-86
2021/10/10 12:14:41;;;;;;;23.30;13.10;;;16.20;37.90;;;;;;5079691;28;20538;-86
2021/10/10 12:17:08;;;;;;;27.37;14.23;;;16.70;37.10;;;;;;5078758;28;20513;-87
2021/10/10 12:19:43;;;;;;;27.43;10.60;;;16.50;36.40;;;;;;5078112;28;20462;-87
2021/10/10 12:22:09;;;;;;;20.43;11.67;;;16.60;41.40;;;;;;5077521;28;20443;-86
2021/10/10 12:24:44;;;;;;;20.80;12.17;;;16.70;37.30;;;;;;5078521;28;20490;-87
2021/10/10 12:27:23;;;;;;;26.13;15.27;;;16.30;37.00;;;;;;5078877;28;20467;-87
2021/10/10 12:29:50;;;;;;;32.73;15.10;;;16.90;36.70;;;;;;5077047;28;21021;-86
2021/10/10 12:32:19;;;;;;;28.63;12.57;;;17.30;35.60;;;;;;5078764;28;20571;-86
2021/10/10 12:34:46;;;;;;;26.60;14.10;;;17.80;35.20;;;;;;5078284;28;20860;-86
2021/10/10 12:37:19;;;;;;;25.63;14.27;;;17.70;33.80;;;;;;5078638;28;20467;-86
2021/10/10 12:39:47;;;;;;;31.10;13.20;;;16.90;34.80;;;;;;5078796;28;20456;-86